sensor_id;sensor_type;location;lat;lon;timestamp;pressure;altitude;pressure_sealevel;temperature;humidity
21234;BME280;10774;42.178;26.578;2024-01-10T00:00:31;101289.63;;;-3.30;58.74
21234;BME280;10774;42.178;26.578;2024-01-10T00:02:57;101299.25;;;-3.28;58.32
21234;BME280;10774;42.178;26.578;2024-01-10T00:05:22;101294.88;;;-3.27;58.08
21234;BME280;10774;42.178;26.578;2024-01-10T00:07:47;101296.63;;;-3.29;57.41
21234;BME280;10774;42.178;26.578;2024-01-10T00:10:13;101306.31;;;-3.25;56.56
21234;BME280;10774;42.178;26.578;2024-01-10T00:12:38;101291.31;;;-3.32;56.20
21234;BME280;10774;42.178;26.578;2024-01-10T00:15:04;101307.19;;;-3.26;55.68
21234;BME280;10774;42.178;26.578;2024-01-10T00:17:31;101293.00;;;-3.37;54.36
21234;BME280;10774;42.178;26.578;2024-01-10T00:19:56;101309.09;;;-3.13;56.47
21234;BME280;10774;42.178;26.578;2024-01-10T00:22:22;101318.78;;;-3.09;54.67
21234;BME280;10774;42.178;26.578;2024-01-10T00:24:47;101312.47;;;-3.23;54.59
21234;BME280;10774;42.178;26.578;2024-01-10T00:27:12;101329.16;;;-3.17;53.48
21234;BME280;10774;42.178;26.578;2024-01-10T00:29:38;101315.88;;;-3.30;53.40
21234;BME280;10774;42.178;26.578;2024-01-10T00:32:03;101310.69;;;-3.24;54.37
21234;BME280;10774;42.178;26.578;2024-01-10T00:34:29;101325.81;;;-3.08;54.45
21234;BME280;10774;42.178;26.578;2024-01-10T00:36:55;101319.66;;;-3.08;54.07
21234;BME280;10774;42.178;26.578;2024-01-10T00:39:20;101319.38;;;-3.28;53.61
21234;BME280;10774;42.178;26.578;2024-01-10T00:41:45;101324.84;;;-3.16;53.79
21234;BME280;10774;42.178;26.578;2024-01-10T00:44:11;101320.69;;;-2.97;54.72
21234;BME280;10774;42.178;26.578;2024-01-10T00:46:36;101322.00;;;-3.30;53.31
21234;BME280;10774;42.178;26.578;2024-01-10T00:49:02;101318.56;;;-3.24;53.38
21234;BME280;10774;42.178;26.578;2024-01-10T00:51:27;101304.84;;;-3.05;54.30
21234;BME280;10774;42.178;26.578;2024-01-10T00:53:53;101316.09;;;-3.12;52.68
21234;BME280;10774;42.178;26.578;2024-01-10T00:56:18;101325.66;;;-3.20;53.04
21234;BME280;10774;42.178;26.578;2024-01-10T00:58:43;101308.38;;;-3.01;54.21
21234;BME280;10774;42.178;26.578;2024-01-10T01:01:09;101319.00;;;-2.95;53.74
21234;BME280;10774;42.178;26.578;2024-01-10T01:03:34;101323.38;;;-2.93;53.00
21234;BME280;10774;42.178;26.578;2024-01-10T01:06:01;101331.13;;;-3.03;53.32
21234;BME280;10774;42.178;26.578;2024-01-10T01:08:26;101309.81;;;-3.25;52.96
21234;BME280;10774;42.178;26.578;2024-01-10T01:10:52;101296.63;;;-3.29;52.82
21234;BME280;10774;42.178;26.578;2024-01-10T01:13:17;101322.88;;;-3.29;52.59
21234;BME280;10774;42.178;26.578;2024-01-10T01:15:43;101322.97;;;-3.23;52.71
21234;BME280;10774;42.178;26.578;2024-01-10T01:18:08;101312.53;;;-3.19;52.79
21234;BME280;10774;42.178;26.578;2024-01-10T01:20:35;101315.06;;;-3.25;51.77
21234;BME280;10774;42.178;26.578;2024-01-10T01:23:00;101302.66;;;-3.35;52.42
21234;BME280;10774;42.178;26.578;2024-01-10T01:25:26;101317.47;;;-3.42;51.71
21234;BME280;10774;42.178;26.578;2024-01-10T01:27:51;101320.09;;;-3.38;53.11
21234;BME280;10774;42.178;26.578;2024-01-10T01:30:16;101319.13;;;-3.47;52.70
21234;BME280;10774;42.178;26.578;2024-01-10T01:32:42;101310.31;;;-3.52;53.44
21234;BME280;10774;42.178;26.578;2024-01-10T01:35:07;101322.72;;;-3.42;52.92
21234;BME280;10774;42.178;26.578;2024-01-10T01:37:33;101324.28;;;-3.53;53.21
21234;BME280;10774;42.178;26.578;2024-01-10T01:39:58;101321.66;;;-3.53;53.40
21234;BME280;10774;42.178;26.578;2024-01-10T01:42:24;101319.13;;;-3.47;53.23
21234;BME280;10774;42.178;26.578;2024-01-10T01:44:49;101313.56;;;-3.66;52.89
21234;BME280;10774;42.178;26.578;2024-01-10T01:47:15;101324.41;;;-3.44;53.64
21234;BME280;10774;42.178;26.578;2024-01-10T01:49:41;101327.97;;;-3.42;53.29
21234;BME280;10774;42.178;26.578;2024-01-10T01:52:08;101298.06;;;-3.50;53.86
21234;BME280;10774;42.178;26.578;2024-01-10T01:54:34;101306.88;;;-3.46;53.75
21234;BME280;10774;42.178;26.578;2024-01-10T01:57:00;101317.53;;;-3.35;54.45
21234;BME280;10774;42.178;26.578;2024-01-10T01:59:26;101312.31;;;-3.32;53.75
21234;BME280;10774;42.178;26.578;2024-01-10T02:01:54;101313.09;;;-3.41;53.26
21234;BME280;10774;42.178;26.578;2024-01-10T02:04:20;101316.44;;;-3.50;53.29
21234;BME280;10774;42.178;26.578;2024-01-10T02:06:45;101307.66;;;-3.53;53.70
21234;BME280;10774;42.178;26.578;2024-01-10T02:09:11;101301.66;;;-3.43;53.10
21234;BME280;10774;42.178;26.578;2024-01-10T02:11:36;101290.16;;;-3.53;53.50
21234;BME280;10774;42.178;26.578;2024-01-10T02:14:02;101301.72;;;-3.38;52.81
21234;BME280;10774;42.178;26.578;2024-01-10T02:16:28;101305.06;;;-3.49;52.57
21234;BME280;10774;42.178;26.578;2024-01-10T02:18:53;101302.50;;;-3.47;52.29
21234;BME280;10774;42.178;26.578;2024-01-10T02:21:22;101299.81;;;-3.52;52.80
21234;BME280;10774;42.178;26.578;2024-01-10T02:23:48;101307.03;;;-3.35;53.26
21234;BME280;10774;42.178;26.578;2024-01-10T02:26:14;101308.72;;;-3.40;52.79
21234;BME280;10774;42.178;26.578;2024-01-10T02:28:40;101311.47;;;-3.31;52.95
21234;BME280;10774;42.178;26.578;2024-01-10T02:31:05;101309.44;;;-3.51;52.04
21234;BME280;10774;42.178;26.578;2024-01-10T02:33:32;101320.56;;;-3.67;51.85
21234;BME280;10774;42.178;26.578;2024-01-10T02:35:58;101318.44;;;-3.33;53.07
21234;BME280;10774;42.178;26.578;2024-01-10T02:38:23;101305.06;;;-3.52;51.72
21234;BME280;10774;42.178;26.578;2024-01-10T02:40:49;101302.03;;;-3.78;52.21
21234;BME280;10774;42.178;26.578;2024-01-10T02:43:15;101313.56;;;-3.65;53.26
21234;BME280;10774;42.178;26.578;2024-01-10T02:45:41;101301.66;;;-4.01;52.35
21234;BME280;10774;42.178;26.578;2024-01-10T02:48:06;101312.88;;;-4.08;52.60
21234;BME280;10774;42.178;26.578;2024-01-10T02:50:32;101324.97;;;-4.16;52.14
21234;BME280;10774;42.178;26.578;2024-01-10T02:52:57;101327.22;;;-3.86;52.85
21234;BME280;10774;42.178;26.578;2024-01-10T02:55:23;101332.53;;;-3.84;52.33
21234;BME280;10774;42.178;26.578;2024-01-10T02:57:48;101328.97;;;-3.86;51.71
21234;BME280;10774;42.178;26.578;2024-01-10T03:00:14;101337.59;;;-3.95;51.12
21234;BME280;10774;42.178;26.578;2024-01-10T03:02:39;101314.81;;;-3.98;52.12
21234;BME280;10774;42.178;26.578;2024-01-10T03:05:05;101323.47;;;-4.02;51.64
21234;BME280;10774;42.178;26.578;2024-01-10T03:07:30;101336.03;;;-3.84;52.86
21234;BME280;10774;42.178;26.578;2024-01-10T03:09:55;101314.25;;;-4.28;52.68
21234;BME280;10774;42.178;26.578;2024-01-10T03:12:21;101322.72;;;-3.95;53.63
21234;BME280;10774;42.178;26.578;2024-01-10T03:14:46;101344.06;;;-3.73;53.85
21234;BME280;10774;42.178;26.578;2024-01-10T03:17:12;101322.94;;;-4.32;53.80
21234;BME280;10774;42.178;26.578;2024-01-10T03:19:37;101331.47;;;-3.94;54.94
21234;BME280;10774;42.178;26.578;2024-01-10T03:22:07;101340.72;;;-4.16;54.46
21234;BME280;10774;42.178;26.578;2024-01-10T03:24:33;101319.34;;;-3.87;55.51
21234;BME280;10774;42.178;26.578;2024-01-10T03:26:59;101321.44;;;-4.18;54.44
21234;BME280;10774;42.178;26.578;2024-01-10T03:29:24;101327.34;;;-4.30;54.97
21234;BME280;10774;42.178;26.578;2024-01-10T03:31:50;101333.75;;;-4.14;54.89
21234;BME280;10774;42.178;26.578;2024-01-10T03:34:15;101344.16;;;-4.17;55.39
21234;BME280;10774;42.178;26.578;2024-01-10T03:36:43;101350.00;;;-3.85;55.67
21234;BME280;10774;42.178;26.578;2024-01-10T03:39:08;101340.44;;;-3.80;55.33
21234;BME280;10774;42.178;26.578;2024-01-10T03:41:34;101351.06;;;-3.74;55.37
21234;BME280;10774;42.178;26.578;2024-01-10T03:43:59;101342.94;;;-3.87;54.80
21234;BME280;10774;42.178;26.578;2024-01-10T03:46:25;101341.47;;;-3.73;54.93
21234;BME280;10774;42.178;26.578;2024-01-10T03:48:50;101347.81;;;-4.09;54.49
21234;BME280;10774;42.178;26.578;2024-01-10T03:51:18;101350.81;;;-3.87;55.38
21234;BME280;10774;42.178;26.578;2024-01-10T03:53:45;101355.63;;;-4.12;55.13
21234;BME280;10774;42.178;26.578;2024-01-10T03:56:11;101367.44;;;-3.87;56.00
21234;BME280;10774;42.178;26.578;2024-01-10T03:58:37;101373.81;;;-3.73;55.74
21234;BME280;10774;42.178;26.578;2024-01-10T04:01:06;101362.94;;;-3.94;56.08
21234;BME280;10774;42.178;26.578;2024-01-10T04:03:32;101369.53;;;-3.69;56.69
21234;BME280;10774;42.178;26.578;2024-01-10T04:05:58;101359.06;;;-3.66;56.00
21234;BME280;10774;42.178;26.578;2024-01-10T04:08:23;101361.75;;;-3.63;56.46
21234;BME280;10774;42.178;26.578;2024-01-10T04:10:49;101365.50;;;-3.99;56.21
21234;BME280;10774;42.178;26.578;2024-01-10T04:13:14;101362.50;;;-4.18;56.42
21234;BME280;10774;42.178;26.578;2024-01-10T04:15:40;101370.94;;;-3.88;57.59
21234;BME280;10774;42.178;26.578;2024-01-10T04:18:05;101371.63;;;-3.97;58.06
21234;BME280;10774;42.178;26.578;2024-01-10T04:20:30;101356.88;;;-3.91;57.93
21234;BME280;10774;42.178;26.578;2024-01-10T04:22:56;101362.47;;;-3.70;58.65
21234;BME280;10774;42.178;26.578;2024-01-10T04:25:21;101372.97;;;-3.70;57.71
21234;BME280;10774;42.178;26.578;2024-01-10T04:27:47;101378.56;;;-3.49;58.61
21234;BME280;10774;42.178;26.578;2024-01-10T04:30:15;101376.59;;;-3.63;58.53
21234;BME280;10774;42.178;26.578;2024-01-10T04:32:40;101369.38;;;-3.75;58.02
21234;BME280;10774;42.178;26.578;2024-01-10T04:35:06;101389.31;;;-3.86;57.53
21234;BME280;10774;42.178;26.578;2024-01-10T04:37:32;101392.03;;;-3.80;58.50
21234;BME280;10774;42.178;26.578;2024-01-10T04:39:57;101411.16;;;-3.87;57.72
21234;BME280;10774;42.178;26.578;2024-01-10T04:42:22;101401.81;;;-4.20;57.80
21234;BME280;10774;42.178;26.578;2024-01-10T04:44:48;101397.47;;;-4.18;59.01
21234;BME280;10774;42.178;26.578;2024-01-10T04:47:15;101416.47;;;-3.84;59.35
21234;BME280;10774;42.178;26.578;2024-01-10T04:49:40;101407.34;;;-4.05;59.88
21234;BME280;10774;42.178;26.578;2024-01-10T04:52:05;101403.69;;;-4.13;60.06
21234;BME280;10774;42.178;26.578;2024-01-10T04:54:31;101430.19;;;-3.98;59.92
21234;BME280;10774;42.178;26.578;2024-01-10T04:56:56;101430.38;;;-3.88;60.08
21234;BME280;10774;42.178;26.578;2024-01-10T04:59:22;101438.28;;;-3.85;60.27
21234;BME280;10774;42.178;26.578;2024-01-10T05:01:47;101432.88;;;-3.95;60.15
21234;BME280;10774;42.178;26.578;2024-01-10T05:04:13;101440.31;;;-3.71;60.46
21234;BME280;10774;42.178;26.578;2024-01-10T05:06:38;101440.69;;;-3.49;60.13
21234;BME280;10774;42.178;26.578;2024-01-10T05:09:04;101424.91;;;-3.52;58.92
21234;BME280;10774;42.178;26.578;2024-01-10T05:11:30;101434.25;;;-3.68;58.79
21234;BME280;10774;42.178;26.578;2024-01-10T05:13:55;101450.38;;;-3.47;58.32
21234;BME280;10774;42.178;26.578;2024-01-10T05:16:21;101443.72;;;-3.75;58.98
21234;BME280;10774;42.178;26.578;2024-01-10T05:18:46;101442.44;;;-3.97;58.06
21234;BME280;10774;42.178;26.578;2024-01-10T05:21:12;101453.78;;;-3.99;58.91
21234;BME280;10774;42.178;26.578;2024-01-10T05:23:37;101468.00;;;-4.30;59.58
21234;BME280;10774;42.178;26.578;2024-01-10T05:26:04;101462.56;;;-4.39;59.90
21234;BME280;10774;42.178;26.578;2024-01-10T05:28:30;101458.38;;;-4.31;60.27
21234;BME280;10774;42.178;26.578;2024-01-10T05:30:55;101464.06;;;-4.08;59.93
21234;BME280;10774;42.178;26.578;2024-01-10T05:33:21;101459.16;;;-4.35;60.02
21234;BME280;10774;42.178;26.578;2024-01-10T05:35:47;101470.09;;;-4.14;59.60
21234;BME280;10774;42.178;26.578;2024-01-10T05:38:12;101475.94;;;-3.83;59.88
21234;BME280;10774;42.178;26.578;2024-01-10T05:40:37;101480.09;;;-3.95;59.90
21234;BME280;10774;42.178;26.578;2024-01-10T05:43:03;101482.84;;;-3.88;59.21
21234;BME280;10774;42.178;26.578;2024-01-10T05:45:28;101481.69;;;-4.01;59.31
21234;BME280;10774;42.178;26.578;2024-01-10T05:47:54;101489.25;;;-3.73;59.79
21234;BME280;10774;42.178;26.578;2024-01-10T05:50:20;101484.31;;;-3.57;60.16
21234;BME280;10774;42.178;26.578;2024-01-10T05:52:46;101484.59;;;-3.42;59.35
21234;BME280;10774;42.178;26.578;2024-01-10T05:55:12;101484.03;;;-3.71;58.72
21234;BME280;10774;42.178;26.578;2024-01-10T05:57:38;101503.78;;;-3.43;59.69
21234;BME280;10774;42.178;26.578;2024-01-10T06:00:04;101489.84;;;-3.87;59.65
21234;BME280;10774;42.178;26.578;2024-01-10T06:02:37;101495.28;;;-3.78;60.10
21234;BME280;10774;42.178;26.578;2024-01-10T06:07:31;101499.72;;;-4.18;58.72
21234;BME280;10774;42.178;26.578;2024-01-10T06:09:57;101512.00;;;-3.73;59.60
21234;BME280;10774;42.178;26.578;2024-01-10T06:12:22;101514.63;;;-3.73;58.27
21234;BME280;10774;42.178;26.578;2024-01-10T06:14:47;101496.19;;;-4.20;59.30
21234;BME280;10774;42.178;26.578;2024-01-10T06:17:13;101522.50;;;-3.72;59.13
21234;BME280;10774;42.178;26.578;2024-01-10T06:19:38;101523.63;;;-3.59;58.10
21234;BME280;10774;42.178;26.578;2024-01-10T06:22:04;101526.00;;;-3.26;58.35
21234;BME280;10774;42.178;26.578;2024-01-10T06:24:30;101509.88;;;-3.46;57.10
21234;BME280;10774;42.178;26.578;2024-01-10T06:26:55;101518.75;;;-3.37;57.00
21234;BME280;10774;42.178;26.578;2024-01-10T06:29:21;101523.13;;;-3.38;56.53
21234;BME280;10774;42.178;26.578;2024-01-10T06:31:46;101513.78;;;-3.22;58.21
21234;BME280;10774;42.178;26.578;2024-01-10T06:34:12;101509.88;;;-3.47;57.31
21234;BME280;10774;42.178;26.578;2024-01-10T06:36:38;101517.66;;;-3.52;58.11
21234;BME280;10774;42.178;26.578;2024-01-10T06:39:04;101536.59;;;-3.21;58.63
21234;BME280;10774;42.178;26.578;2024-01-10T06:41:29;101519.19;;;-3.63;57.66
21234;BME280;10774;42.178;26.578;2024-01-10T06:43:54;101551.66;;;-3.11;58.03
21234;BME280;10774;42.178;26.578;2024-01-10T06:46:20;101545.78;;;-3.43;57.04
21234;BME280;10774;42.178;26.578;2024-01-10T06:48:46;101551.59;;;-3.14;57.35
21234;BME280;10774;42.178;26.578;2024-01-10T06:51:13;101557.31;;;-3.36;57.80
21234;BME280;10774;42.178;26.578;2024-01-10T06:53:38;101542.69;;;-3.69;57.67
21234;BME280;10774;42.178;26.578;2024-01-10T06:56:05;101559.09;;;-3.32;57.53
21234;BME280;10774;42.178;26.578;2024-01-10T06:58:31;101543.22;;;-3.42;58.23
21234;BME280;10774;42.178;26.578;2024-01-10T07:00:56;101534.50;;;-3.37;57.90
21234;BME280;10774;42.178;26.578;2024-01-10T07:03:21;101550.44;;;-3.28;58.39
21234;BME280;10774;42.178;26.578;2024-01-10T07:05:47;101559.84;;;-2.93;57.73
21234;BME280;10774;42.178;26.578;2024-01-10T07:08:13;101563.69;;;-3.22;57.57
21234;BME280;10774;42.178;26.578;2024-01-10T07:10:39;101569.38;;;-2.98;57.62
21234;BME280;10774;42.178;26.578;2024-01-10T07:13:04;101576.03;;;-2.65;58.21
21234;BME280;10774;42.178;26.578;2024-01-10T07:15:30;101567.16;;;-2.73;57.66
21234;BME280;10774;42.178;26.578;2024-01-10T07:17:56;101560.50;;;-2.53;56.99
21234;BME280;10774;42.178;26.578;2024-01-10T07:20:21;101559.00;;;-2.32;56.56
21234;BME280;10774;42.178;26.578;2024-01-10T07:22:49;101572.84;;;-2.46;55.12
21234;BME280;10774;42.178;26.578;2024-01-10T07:25:15;101565.13;;;-2.35;55.63
21234;BME280;10774;42.178;26.578;2024-01-10T07:27:40;101546.78;;;-2.32;56.06
21234;BME280;10774;42.178;26.578;2024-01-10T07:30:06;101565.59;;;-2.01;55.93
21234;BME280;10774;42.178;26.578;2024-01-10T07:32:47;101572.81;;;-1.87;55.94
21234;BME280;10774;42.178;26.578;2024-01-10T07:35:13;101563.16;;;-1.88;55.63
21234;BME280;10774;42.178;26.578;2024-01-10T07:37:41;101557.75;;;-1.95;55.18
21234;BME280;10774;42.178;26.578;2024-01-10T07:40:10;101574.63;;;-1.81;55.96
21234;BME280;10774;42.178;26.578;2024-01-10T07:42:37;101566.75;;;-1.79;55.30
21234;BME280;10774;42.178;26.578;2024-01-10T07:45:03;101570.25;;;-1.80;55.73
21234;BME280;10774;42.178;26.578;2024-01-10T07:47:33;101545.78;;;-1.70;56.60
21234;BME280;10774;42.178;26.578;2024-01-10T07:50:09;101559.31;;;-1.40;56.63
21234;BME280;10774;42.178;26.578;2024-01-10T07:52:35;101551.25;;;-1.55;54.30
21234;BME280;10774;42.178;26.578;2024-01-10T07:55:01;101556.31;;;-1.72;54.47
21234;BME280;10774;42.178;26.578;2024-01-10T07:57:29;101555.47;;;-1.69;54.54
21234;BME280;10774;42.178;26.578;2024-01-10T07:59:55;101572.19;;;-1.67;53.83
21234;BME280;10774;42.178;26.578;2024-01-10T08:02:20;101570.47;;;-1.62;54.26
21234;BME280;10774;42.178;26.578;2024-01-10T08:04:47;101570.31;;;-1.74;54.37
21234;BME280;10774;42.178;26.578;2024-01-10T08:07:12;101563.47;;;-1.62;54.26
21234;BME280;10774;42.178;26.578;2024-01-10T08:09:38;101560.72;;;-1.71;53.90
21234;BME280;10774;42.178;26.578;2024-01-10T08:12:04;101543.03;;;-1.81;53.77
21234;BME280;10774;42.178;26.578;2024-01-10T08:14:29;101557.31;;;-1.62;53.20
21234;BME280;10774;42.178;26.578;2024-01-10T08:16:55;101559.50;;;-1.99;53.94
21234;BME280;10774;42.178;26.578;2024-01-10T08:19:24;101548.31;;;-1.79;54.26
21234;BME280;10774;42.178;26.578;2024-01-10T08:21:51;101566.94;;;-1.64;53.85
21234;BME280;10774;42.178;26.578;2024-01-10T08:24:17;101560.78;;;-1.66;52.95
21234;BME280;10774;42.178;26.578;2024-01-10T08:26:42;101563.47;;;-1.60;52.08
21234;BME280;10774;42.178;26.578;2024-01-10T08:29:08;101547.88;;;-2.15;52.90
21234;BME280;10774;42.178;26.578;2024-01-10T08:31:33;101566.66;;;-1.89;52.93
21234;BME280;10774;42.178;26.578;2024-01-10T08:34:00;101561.19;;;-2.04;53.23
21234;BME280;10774;42.178;26.578;2024-01-10T08:36:26;101568.50;;;-1.80;53.43
21234;BME280;10774;42.178;26.578;2024-01-10T08:38:52;101562.56;;;-2.30;53.26
21234;BME280;10774;42.178;26.578;2024-01-10T08:41:22;101576.03;;;-2.07;54.26
21234;BME280;10774;42.178;26.578;2024-01-10T08:43:50;101566.31;;;-2.13;53.23
21234;BME280;10774;42.178;26.578;2024-01-10T08:46:16;101565.56;;;-2.04;53.72
21234;BME280;10774;42.178;26.578;2024-01-10T08:48:42;101557.81;;;-1.91;53.52
21234;BME280;10774;42.178;26.578;2024-01-10T08:51:07;101551.47;;;-2.08;53.36
21234;BME280;10774;42.178;26.578;2024-01-10T08:53:35;101550.72;;;-1.98;54.33
21234;BME280;10774;42.178;26.578;2024-01-10T08:56:00;101554.56;;;-1.71;53.79
21234;BME280;10774;42.178;26.578;2024-01-10T08:58:25;101557.06;;;-1.82;53.04
21234;BME280;10774;42.178;26.578;2024-01-10T09:00:51;101560.72;;;-1.72;53.18
21234;BME280;10774;42.178;26.578;2024-01-10T09:03:16;101559.69;;;-1.83;53.43
21234;BME280;10774;42.178;26.578;2024-01-10T09:05:42;101543.34;;;-1.55;54.18
21234;BME280;10774;42.178;26.578;2024-01-10T09:08:07;101539.13;;;-1.39;54.17
21234;BME280;10774;42.178;26.578;2024-01-10T09:10:33;101539.34;;;-1.16;53.60
21234;BME280;10774;42.178;26.578;2024-01-10T09:12:59;101542.63;;;-1.42;53.20
21234;BME280;10774;42.178;26.578;2024-01-10T09:15:24;101537.03;;;-1.69;52.64
21234;BME280;10774;42.178;26.578;2024-01-10T09:17:50;101524.78;;;-1.67;53.66
21234;BME280;10774;42.178;26.578;2024-01-10T09:20:17;101536.66;;;-1.22;52.78
21234;BME280;10774;42.178;26.578;2024-01-10T09:22:43;101524.09;;;-1.51;52.44
21234;BME280;10774;42.178;26.578;2024-01-10T09:25:08;101529.56;;;-1.31;52.78
21234;BME280;10774;42.178;26.578;2024-01-10T09:27:34;101522.28;;;-1.55;52.74
21234;BME280;10774;42.178;26.578;2024-01-10T09:30:02;101521.22;;;-1.72;51.97
21234;BME280;10774;42.178;26.578;2024-01-10T09:32:28;101524.75;;;-1.70;52.40
21234;BME280;10774;42.178;26.578;2024-01-10T09:34:56;101524.13;;;-1.46;53.91
21234;BME280;10774;42.178;26.578;2024-01-10T09:37:22;101498.78;;;-1.34;52.70
21234;BME280;10774;42.178;26.578;2024-01-10T09:39:48;101503.88;;;-1.52;53.24
21234;BME280;10774;42.178;26.578;2024-01-10T09:42:14;101516.13;;;-1.57;52.52
21234;BME280;10774;42.178;26.578;2024-01-10T09:44:41;101499.41;;;-1.61;52.03
21234;BME280;10774;42.178;26.578;2024-01-10T09:47:07;101497.41;;;-1.83;52.40
21234;BME280;10774;42.178;26.578;2024-01-10T09:49:34;101502.78;;;-1.74;52.09
21234;BME280;10774;42.178;26.578;2024-01-10T09:52:03;101496.84;;;-1.53;52.03
21234;BME280;10774;42.178;26.578;2024-01-10T09:54:30;101488.16;;;-1.47;52.60
21234;BME280;10774;42.178;26.578;2024-01-10T09:56:59;101494.63;;;-1.07;51.92
21234;BME280;10774;42.178;26.578;2024-01-10T09:59:25;101480.00;;;-0.68;52.36
21234;BME280;10774;42.178;26.578;2024-01-10T10:01:54;101498.28;;;-0.90;51.67
21234;BME280;10774;42.178;26.578;2024-01-10T10:04:21;101483.53;;;-0.66;51.61
21234;BME280;10774;42.178;26.578;2024-01-10T10:06:58;101484.53;;;-0.43;51.00
21234;BME280;10774;42.178;26.578;2024-01-10T10:09:24;101482.66;;;-0.65;49.97
21234;BME280;10774;42.178;26.578;2024-01-10T10:11:56;101473.63;;;-0.99;49.75
21234;BME280;10774;42.178;26.578;2024-01-10T10:14:28;101481.84;;;-0.55;51.08
21234;BME280;10774;42.178;26.578;2024-01-10T10:16:54;101473.16;;;-0.36;50.07
21234;BME280;10774;42.178;26.578;2024-01-10T10:19:25;101469.28;;;-0.93;49.87
21234;BME280;10774;42.178;26.578;2024-01-10T10:21:51;101466.00;;;-0.55;50.09
21234;BME280;10774;42.178;26.578;2024-01-10T10:24:16;101464.34;;;-0.38;48.73
21234;BME280;10774;42.178;26.578;2024-01-10T10:26:42;101463.63;;;-0.02;50.40
21234;BME280;10774;42.178;26.578;2024-01-10T10:29:08;101448.66;;;-0.07;50.56
21234;BME280;10774;42.178;26.578;2024-01-10T10:31:33;101439.03;;;0.12;49.33
21234;BME280;10774;42.178;26.578;2024-01-10T10:34:01;101445.09;;;-0.12;49.78
21234;BME280;10774;42.178;26.578;2024-01-10T10:36:30;101437.25;;;-0.05;49.96
21234;BME280;10774;42.178;26.578;2024-01-10T10:38:59;101439.78;;;-0.21;50.66
21234;BME280;10774;42.178;26.578;2024-01-10T10:41:26;101446.78;;;-0.36;50.66
21234;BME280;10774;42.178;26.578;2024-01-10T10:43:54;101453.88;;;-0.16;50.13
21234;BME280;10774;42.178;26.578;2024-01-10T10:46:20;101448.59;;;-0.25;50.85
21234;BME280;10774;42.178;26.578;2024-01-10T10:48:48;101445.16;;;-0.03;50.49
21234;BME280;10774;42.178;26.578;2024-01-10T10:51:32;101450.47;;;0.08;49.87
21234;BME280;10774;42.178;26.578;2024-01-10T10:54:02;101440.84;;;0.40;50.31
21234;BME280;10774;42.178;26.578;2024-01-10T10:56:30;101432.94;;;0.33;50.36
21234;BME280;10774;42.178;26.578;2024-01-10T10:59:00;101421.28;;;-0.28;50.11
21234;BME280;10774;42.178;26.578;2024-01-10T11:01:27;101438.06;;;-0.19;50.38
21234;BME280;10774;42.178;26.578;2024-01-10T11:03:53;101418.50;;;-0.64;50.02
21234;BME280;10774;42.178;26.578;2024-01-10T11:06:20;101420.41;;;-0.27;50.65
21234;BME280;10774;42.178;26.578;2024-01-10T11:24:47;101402.13;;;0.55;49.25
21234;BME280;10774;42.178;26.578;2024-01-10T11:27:14;101412.66;;;0.25;49.20
21234;BME280;10774;42.178;26.578;2024-01-10T11:29:41;101388.94;;;0.53;49.07
21234;BME280;10774;42.178;26.578;2024-01-10T11:32:13;101392.41;;;0.98;49.06
21234;BME280;10774;42.178;26.578;2024-01-10T11:34:49;101404.72;;;0.32;48.02
21234;BME280;10774;42.178;26.578;2024-01-10T11:37:15;101391.53;;;0.24;49.44
21234;BME280;10774;42.178;26.578;2024-01-10T11:39:44;101390.66;;;0.23;48.95
21234;BME280;10774;42.178;26.578;2024-01-10T11:42:10;101379.22;;;0.40;48.65
21234;BME280;10774;42.178;26.578;2024-01-10T11:44:47;101386.25;;;0.88;47.30
21234;BME280;10774;42.178;26.578;2024-01-10T11:47:13;101380.75;;;1.62;49.31
21234;BME280;10774;42.178;26.578;2024-01-10T11:49:40;101370.09;;;1.81;46.50
21234;BME280;10774;42.178;26.578;2024-01-10T11:52:06;101373.50;;;1.99;44.81
21234;BME280;10774;42.178;26.578;2024-01-10T11:57:27;101383.56;;;1.14;46.83
21234;BME280;10774;42.178;26.578;2024-01-10T11:59:54;101358.97;;;0.63;45.63
21234;BME280;10774;42.178;26.578;2024-01-10T12:02:21;101363.38;;;0.40;46.08
21234;BME280;10774;42.178;26.578;2024-01-10T12:04:47;101362.47;;;0.87;47.42
21234;BME280;10774;42.178;26.578;2024-01-10T12:07:14;101360.53;;;1.42;46.45
21234;BME280;10774;42.178;26.578;2024-01-10T12:09:40;101357.97;;;1.19;46.46
21234;BME280;10774;42.178;26.578;2024-01-10T12:12:07;101362.41;;;1.17;46.21
21234;BME280;10774;42.178;26.578;2024-01-10T12:14:34;101366.59;;;1.73;45.93
21234;BME280;10774;42.178;26.578;2024-01-10T12:17:00;101351.16;;;2.36;45.78
21234;BME280;10774;42.178;26.578;2024-01-10T12:19:26;101371.03;;;2.91;45.40
21234;BME280;10774;42.178;26.578;2024-01-10T12:21:51;101364.66;;;3.09;43.40
21234;BME280;10774;42.178;26.578;2024-01-10T12:24:18;101365.81;;;2.85;42.59
21234;BME280;10774;42.178;26.578;2024-01-10T12:26:44;101368.50;;;1.41;44.51
21234;BME280;10774;42.178;26.578;2024-01-10T12:29:10;101368.78;;;2.45;45.15
21234;BME280;10774;42.178;26.578;2024-01-10T12:31:36;101374.75;;;2.70;44.58
21234;BME280;10774;42.178;26.578;2024-01-10T12:34:02;101367.06;;;3.30;44.76
21234;BME280;10774;42.178;26.578;2024-01-10T12:36:28;101363.13;;;3.63;43.59
21234;BME280;10774;42.178;26.578;2024-01-10T12:38:53;101366.03;;;2.59;45.90
21234;BME280;10774;42.178;26.578;2024-01-10T12:41:19;101341.66;;;2.11;43.40
21234;BME280;10774;42.178;26.578;2024-01-10T12:43:49;101371.22;;;2.71;43.67
21234;BME280;10774;42.178;26.578;2024-01-10T12:46:15;101358.47;;;2.04;43.79
21234;BME280;10774;42.178;26.578;2024-01-10T12:48:41;101350.19;;;2.51;43.60
21234;BME280;10774;42.178;26.578;2024-01-10T12:51:11;101372.94;;;2.74;46.39
21234;BME280;10774;42.178;26.578;2024-01-10T12:53:39;101369.78;;;2.29;46.26
21234;BME280;10774;42.178;26.578;2024-01-10T12:56:06;101364.19;;;2.67;44.64